createdAt,value
2018-12-20T00:01:05.156Z,82.50
2018-12-20T00:03:34.710Z,82.80
2018-12-20T00:06:03.986Z,82.90
2018-12-20T00:08:33.569Z,83.80
2018-12-20T00:11:08.528Z,82.60
2018-12-20T00:16:51.707Z,85.70
2018-12-20T00:22:20.309Z,85.10
2018-12-20T00:24:50.088Z,83.20
2018-12-20T00:27:20.742Z,83.80
2018-12-20T00:29:50.417Z,83.10
2018-12-20T00:32:20.971Z,83.70
2018-12-20T00:34:50.332Z,84.90
2018-12-20T00:37:19.971Z,84.10
2018-12-20T00:39:49.749Z,83.30
2018-12-20T00:42:19.894Z,83.10
2018-12-20T00:44:50.204Z,82.90
2018-12-20T00:50:17.382Z,83.10
2018-12-20T00:52:46.611Z,84.30
2018-12-20T00:55:16.263Z,86.50
2018-12-20T00:57:45.540Z,87.40
2018-12-20T01:00:14.963Z,87.40
2018-12-20T01:02:44.327Z,88.90
2018-12-20T01:05:13.653Z,89.40
2018-12-20T01:07:43.552Z,89.80
2018-12-20T01:10:13.001Z,90.50
2018-12-20T01:12:42.213Z,90.40
2018-12-20T01:15:11.444Z,91.00
2018-12-20T01:17:41.039Z,91.30
2018-12-20T01:20:12.020Z,91.40
2018-12-20T01:22:42.320Z,91.60
2018-12-20T01:25:11.965Z,91.30
2018-12-20T01:27:41.761Z,91.10
2018-12-20T01:35:17.000Z,91.20
2018-12-20T01:37:46.857Z,89.10
2018-12-20T01:40:16.192Z,87.80
2018-12-20T01:42:46.577Z,91.70
2018-12-20T01:45:16.589Z,92.80
2018-12-20T01:47:45.745Z,93.30
2018-12-20T01:50:17.798Z,94.20
2018-12-20T01:55:16.339Z,95.40
2018-12-20T01:57:45.584Z,96.80
2018-12-20T02:00:16.249Z,96.00
2018-12-20T02:02:45.472Z,92.60
2018-12-20T02:05:15.043Z,94.50
2018-12-20T02:07:44.434Z,94.20
2018-12-20T02:10:17.872Z,95.60
2018-12-20T02:12:47.171Z,96.20
2018-12-20T02:15:18.789Z,96.60
2018-12-20T02:17:48.985Z,95.00
2018-12-20T02:20:19.005Z,95.30
2018-12-20T02:25:16.944Z,95.50
2018-12-20T02:27:46.706Z,96.70
2018-12-20T02:30:16.537Z,97.80
2018-12-20T02:32:45.956Z,97.80
2018-12-20T02:35:16.647Z,97.10
2018-12-20T02:37:46.982Z,96.10
2018-12-20T02:40:21.583Z,95.50
2018-12-20T02:42:51.117Z,95.70
2018-12-20T02:47:50.873Z,98.20
2018-12-20T02:50:22.029Z,98.20
2018-12-20T02:52:52.284Z,98.50
2018-12-20T02:55:21.728Z,99.20
2018-12-20T02:57:52.041Z,98.90
2018-12-20T03:00:21.572Z,98.40
2018-12-20T03:02:50.817Z,98.20
2018-12-20T03:05:20.106Z,98.70
2018-12-20T03:07:49.292Z,99.00
2018-12-20T03:10:18.633Z,99.00
2018-12-20T03:12:47.863Z,99.10
2018-12-20T03:15:20.078Z,99.90
2018-12-20T03:17:48.219Z,99.90
2018-12-20T03:20:18.199Z,99.90
2018-12-20T03:22:47.798Z,99.90
2018-12-20T03:25:17.383Z,99.90
2018-12-20T03:27:46.770Z,99.90
2018-12-20T03:30:16.684Z,99.90
2018-12-20T03:32:46.384Z,99.90
2018-12-20T03:35:16.595Z,99.90
2018-12-20T03:37:46.584Z,99.20
2018-12-20T03:40:17.172Z,99.50
2018-12-20T03:42:47.362Z,99.90
2018-12-20T03:45:17.909Z,99.90
2018-12-20T03:47:47.574Z,99.90
2018-12-20T03:50:17.186Z,99.50
2018-12-20T03:52:47.295Z,97.00
2018-12-20T03:55:16.541Z,97.10
2018-12-20T03:57:45.985Z,96.40
2018-12-20T04:00:16.493Z,97.20
2018-12-20T04:05:39.115Z,97.80
2018-12-20T04:08:10.195Z,97.80
2018-12-20T04:10:42.020Z,97.60
2018-12-20T04:13:11.207Z,97.60
2018-12-20T04:15:40.482Z,97.40
2018-12-20T04:18:10.411Z,97.10
2018-12-20T04:20:51.273Z,96.00
2018-12-20T04:26:12.486Z,92.80
2018-12-20T04:28:42.107Z,93.80
2018-12-20T04:31:11.273Z,92.80
2018-12-20T04:33:41.227Z,94.40
2018-12-20T04:36:10.778Z,94.30
2018-12-20T04:38:40.810Z,95.70
2018-12-20T04:41:10.820Z,95.70
2018-12-20T04:43:40.221Z,95.70
2018-12-20T04:46:14.974Z,95.40
2018-12-20T04:48:56.626Z,94.80
2018-12-20T04:51:27.811Z,95.30
2018-12-20T05:05:17.923Z,93.90
2018-12-20T05:10:34.341Z,92.00
2018-12-20T06:25:59.891Z,91.60
2018-12-20T06:28:29.059Z,91.30
2018-12-20T08:17:40.743Z,76.20
2018-12-20T09:20:38.983Z,66.60
2018-12-20T10:33:18.309Z,46.10
2018-12-20T11:15:46.101Z,45.90
2018-12-20T11:18:27.643Z,43.50
2018-12-20T11:26:38.331Z,41.80
2018-12-20T11:34:38.038Z,42.40
2018-12-20T11:39:59.401Z,42.40
2018-12-20T11:45:06.230Z,42.40
2018-12-20T11:47:51.419Z,42.00
2018-12-20T12:09:13.713Z,39.30
2018-12-20T12:11:48.096Z,37.90
2018-12-20T12:17:01.328Z,38.10
2018-12-20T12:40:23.239Z,41.40
2018-12-20T12:48:10.730Z,39.20
2018-12-20T12:58:43.187Z,39.60
2018-12-20T13:11:41.444Z,39.20
2018-12-20T13:14:16.872Z,40.70
2018-12-20T13:16:59.810Z,38.50
2018-12-20T13:19:47.552Z,39.50
2018-12-20T13:25:13.425Z,41.30
2018-12-20T13:28:00.130Z,41.20
2018-12-20T13:48:48.862Z,41.80
2018-12-20T13:59:07.135Z,43.10
